createdAt,value
2023-05-16T00:01:59.501Z,101610.97
2023-05-16T00:04:33.985Z,101620.19
2023-05-16T00:07:08.291Z,101615.44
2023-05-16T00:09:35.934Z,101631.03
2023-05-16T00:12:10.487Z,101643.09
2023-05-16T00:14:44.501Z,101611.56
2023-05-16T00:17:21.386Z,101617.44
2023-05-16T00:19:49.765Z,101621.44
2023-05-16T00:22:26.292Z,101644.25
2023-05-16T00:25:00.440Z,101610.25
2023-05-16T00:27:37.524Z,101616.34
2023-05-16T00:30:11.726Z,101620.13
2023-05-16T00:32:39.596Z,101621.09
2023-05-16T00:35:17.519Z,101625.44
2023-05-16T00:37:54.204Z,101623.66
2023-05-16T00:40:28.617Z,101634.97
2023-05-16T00:42:56.486Z,101625.38
2023-05-16T00:45:30.388Z,101634.38
2023-05-16T00:48:00.958Z,101646.28
2023-05-16T00:50:43.421Z,101639.63
2023-05-16T00:53:17.451Z,101635.22
2023-05-16T00:55:54.341Z,101645.97
2023-05-16T00:58:23.424Z,101674.16
2023-05-16T01:00:57.491Z,101668.44
2023-05-16T01:03:25.234Z,101652.56
2023-05-16T01:05:54.140Z,101624.75
2023-05-16T01:08:28.339Z,101636.34
2023-05-16T01:11:16.432Z,101654.09
2023-05-16T01:13:59.347Z,101664.53
2023-05-16T01:16:51.455Z,101661.53
2023-05-16T01:19:34.306Z,101649.22
2023-05-16T01:22:24.345Z,101653.94
2023-05-16T01:25:30.337Z,101661.91
2023-05-16T01:28:05.325Z,101628.88
2023-05-16T01:30:40.671Z,101629.22
2023-05-16T01:33:15.435Z,101630.13
2023-05-16T01:36:00.748Z,101653.50
2023-05-16T01:38:45.361Z,101649.75
2023-05-16T01:41:16.888Z,101654.13
2023-05-16T01:43:53.365Z,101653.59
2023-05-16T01:46:30.233Z,101675.25
2023-05-16T01:49:42.467Z,101671.31
2023-05-16T01:52:20.460Z,101663.13
2023-05-16T01:55:00.584Z,101681.00
2023-05-16T01:57:29.604Z,101686.47
2023-05-16T02:00:08.411Z,101681.50
2023-05-16T02:02:42.366Z,101649.22
2023-05-16T02:05:16.742Z,101656.47
2023-05-16T02:07:51.408Z,101671.91
2023-05-16T02:10:20.121Z,101673.78
2023-05-16T02:12:55.809Z,101691.16
2023-05-16T02:15:26.042Z,101666.66
2023-05-16T02:17:59.433Z,101672.88
2023-05-16T02:20:26.975Z,101664.50
2023-05-16T02:23:00.574Z,101656.84
2023-05-16T02:25:47.384Z,101694.66
2023-05-16T02:28:21.515Z,101653.50
2023-05-16T02:30:57.852Z,101664.28
2023-05-16T02:33:33.312Z,101668.88
2023-05-16T02:36:01.023Z,101682.75
2023-05-16T02:38:34.322Z,101682.13
2023-05-16T02:41:01.725Z,101670.44
2023-05-16T02:43:35.509Z,101719.06
2023-05-16T02:46:11.447Z,101706.38
2023-05-16T02:48:45.661Z,101710.81
2023-05-16T02:51:15.446Z,101688.84
2023-05-16T02:53:55.047Z,101702.88
2023-05-16T02:56:28.431Z,101696.09
2023-05-16T02:58:56.648Z,101708.25
2023-05-16T03:01:34.066Z,101734.22
2023-05-16T03:04:08.573Z,101694.06
2023-05-16T03:06:44.990Z,101739.91
2023-05-16T03:09:12.483Z,101708.22
2023-05-16T03:11:46.474Z,101695.47
2023-05-16T03:14:16.094Z,101710.19
2023-05-16T03:16:50.623Z,101739.56
2023-05-16T03:19:24.461Z,101735.28
2023-05-16T03:21:58.449Z,101714.03
2023-05-16T03:24:34.492Z,101736.47
2023-05-16T03:27:15.488Z,101720.50
2023-05-16T03:29:49.453Z,101712.19
2023-05-16T03:32:19.789Z,101721.75
2023-05-16T03:34:53.487Z,101748.50
2023-05-16T03:37:30.308Z,101714.34
2023-05-16T03:39:57.562Z,101760.81
2023-05-16T03:42:24.960Z,101760.03
2023-05-16T03:44:59.385Z,101726.56
2023-05-16T03:47:27.305Z,101742.03
2023-05-16T03:50:01.407Z,101763.63
2023-05-16T03:52:31.235Z,101763.69
2023-05-16T03:55:08.471Z,101728.59
2023-05-16T03:57:37.053Z,101758.06
2023-05-16T04:00:14.699Z,101734.75
2023-05-16T04:02:55.464Z,101764.69
2023-05-16T04:05:36.447Z,101768.97
2023-05-16T04:08:10.446Z,101757.13
2023-05-16T04:10:37.810Z,101748.19
2023-05-16T04:13:11.539Z,101771.41
2023-05-16T04:15:45.416Z,101782.72
2023-05-16T04:18:20.375Z,101764.53
2023-05-16T04:20:48.074Z,101744.03
2023-05-16T04:23:22.531Z,101767.13
2023-05-16T04:26:02.296Z,101781.56
2023-05-16T04:28:42.453Z,101755.81
2023-05-16T04:31:10.059Z,101782.28
2023-05-16T04:33:44.492Z,101753.25
2023-05-16T04:36:11.810Z,101797.16
2023-05-16T04:38:45.451Z,101792.16
2023-05-16T04:41:13.711Z,101775.84
2023-05-16T04:43:47.538Z,101796.22
2023-05-16T04:46:15.909Z,101790.13
2023-05-16T04:48:49.591Z,101811.34
2023-05-16T04:51:19.204Z,101786.47
2023-05-16T04:53:52.536Z,101814.41
2023-05-16T04:56:27.436Z,101798.03
2023-05-16T04:59:01.497Z,101826.34
2023-05-16T05:01:35.485Z,101801.16
2023-05-16T05:04:02.920Z,101786.59
2023-05-16T05:06:36.522Z,101801.09
2023-05-16T05:09:06.117Z,101793.22
2023-05-16T05:11:42.501Z,101809.28
2023-05-16T05:14:15.400Z,101813.25
2023-05-16T05:16:49.574Z,101801.88
2023-05-16T05:19:16.850Z,101835.19
2023-05-16T05:21:50.671Z,101828.25
2023-05-16T05:24:18.122Z,101806.50
2023-05-16T05:26:58.488Z,101812.03
2023-05-16T05:29:32.518Z,101825.50
2023-05-16T05:32:06.835Z,101808.19
2023-05-16T05:34:40.588Z,101841.41
2023-05-16T05:37:14.499Z,101825.78
2023-05-16T05:39:41.829Z,101818.69
2023-05-16T05:42:16.453Z,101815.75
2023-05-16T05:44:53.652Z,101824.75
2023-05-16T05:47:27.676Z,101827.97
2023-05-16T05:50:01.761Z,101824.09
2023-05-16T05:52:31.480Z,101847.78
2023-05-16T05:55:06.407Z,101823.59
2023-05-16T05:57:36.991Z,101820.81
2023-05-16T06:00:12.700Z,101853.78
2023-05-16T06:02:40.854Z,101826.81
2023-05-16T06:05:15.888Z,101838.63
2023-05-16T06:07:43.173Z,101841.78
2023-05-16T06:10:17.713Z,101831.75
2023-05-16T06:12:45.360Z,101822.81
2023-05-16T06:15:22.525Z,101819.66
2023-05-16T06:17:59.263Z,101838.31
2023-05-16T06:20:32.955Z,101830.22
2023-05-16T06:23:06.489Z,101829.84
2023-05-16T06:25:39.812Z,101837.19
2023-05-16T06:28:13.458Z,101831.53
2023-05-16T06:30:41.059Z,101863.38
2023-05-16T06:33:17.550Z,101847.09
2023-05-16T06:35:48.060Z,101855.13
2023-05-16T06:38:22.600Z,101881.31
2023-05-16T06:40:52.317Z,101852.31
2023-05-16T06:43:27.924Z,101865.41
2023-05-16T06:45:55.292Z,101883.28
2023-05-16T06:48:32.789Z,101864.81
2023-05-16T06:51:00.465Z,101851.91
2023-05-16T06:53:30.147Z,101863.50
2023-05-16T06:56:03.625Z,101858.78
2023-05-16T06:58:42.543Z,101880.00
2023-05-16T07:01:11.302Z,101899.00
2023-05-16T07:03:46.735Z,101871.78
2023-05-16T07:06:14.173Z,101873.91
2023-05-16T07:08:47.576Z,101894.38
2023-05-16T07:11:21.943Z,101861.91
2023-05-16T07:13:51.826Z,101871.34
2023-05-16T07:16:25.674Z,101875.78
2023-05-16T07:18:53.463Z,101895.69
2023-05-16T07:21:27.605Z,101872.75
2023-05-16T07:23:55.145Z,101894.88
2023-05-16T07:26:35.709Z,101897.38
2023-05-16T07:29:12.324Z,101883.56
2023-05-16T07:31:45.659Z,101873.63
2023-05-16T07:34:13.120Z,101877.13
2023-05-16T07:36:49.685Z,101870.66
2023-05-16T07:39:26.092Z,101898.94
2023-05-16T07:41:59.666Z,101882.66
2023-05-16T07:44:27.137Z,101885.59
2023-05-16T07:46:54.765Z,101900.22
2023-05-16T07:49:31.750Z,101903.75
2023-05-16T07:51:59.721Z,101879.38
2023-05-16T07:54:38.648Z,101874.06
2023-05-16T07:57:07.021Z,101885.94
2023-05-16T07:59:43.669Z,101900.41
2023-05-16T08:02:14.456Z,101909.00
2023-05-16T08:04:48.685Z,101911.19
2023-05-16T08:07:16.241Z,101893.19
2023-05-16T08:09:50.712Z,101913.28
2023-05-16T08:12:18.627Z,101910.59
2023-05-16T08:14:52.796Z,101890.72
2023-05-16T08:17:29.605Z,101885.38
2023-05-16T08:20:03.634Z,101891.16
2023-05-16T08:22:39.359Z,101877.50
2023-05-16T08:25:07.702Z,101898.84
2023-05-16T08:27:52.622Z,101906.09
2023-05-16T08:30:20.276Z,101880.13
2023-05-16T08:33:06.671Z,101893.25
2023-05-16T08:35:43.777Z,101869.50
2023-05-16T08:38:17.757Z,101912.84
2023-05-16T08:40:48.494Z,101909.41
2023-05-16T08:43:25.643Z,101869.84
2023-05-16T08:45:53.545Z,101888.56
2023-05-16T08:48:30.656Z,101905.00
2023-05-16T08:51:04.746Z,101874.22
2023-05-16T08:53:53.797Z,101882.81
2023-05-16T08:56:24.712Z,101898.63
2023-05-16T08:59:01.640Z,101866.59
2023-05-16T09:01:29.414Z,101877.41
2023-05-16T09:04:04.744Z,101862.28
2023-05-16T09:06:34.479Z,101899.41
2023-05-16T09:09:09.688Z,101861.88
2023-05-16T09:11:37.188Z,101860.44
2023-05-16T09:14:12.656Z,101868.59
2023-05-16T09:16:46.605Z,101855.94
2023-05-16T09:19:14.433Z,101872.22
2023-05-16T09:21:48.574Z,101852.03
2023-05-16T09:24:18.372Z,101859.63
2023-05-16T09:26:51.652Z,101866.25
2023-05-16T09:29:25.802Z,101884.97
2023-05-16T09:31:59.696Z,101877.47
2023-05-16T09:34:26.710Z,101866.31
2023-05-16T09:37:02.561Z,101874.97
2023-05-16T09:39:32.245Z,101903.44
2023-05-16T09:42:06.652Z,101880.66
2023-05-16T09:44:34.083Z,101875.91
2023-05-16T09:47:10.210Z,101869.13
2023-05-16T09:49:43.051Z,101883.38
2023-05-16T09:52:17.652Z,101875.03
2023-05-16T09:54:55.543Z,101871.16
2023-05-16T09:57:23.932Z,101877.38
2023-05-16T09:59:58.809Z,101871.13
2023-05-16T10:02:26.420Z,101888.91
2023-05-16T10:05:05.005Z,101873.81
2023-05-16T10:07:35.538Z,101877.25
2023-05-16T10:10:20.752Z,101890.41
2023-05-16T10:12:54.607Z,101901.78
2023-05-16T10:15:28.698Z,101891.59
2023-05-16T10:18:00.443Z,101898.31
2023-05-16T10:20:34.661Z,101893.97
2023-05-16T10:23:03.336Z,101888.16
2023-05-16T10:25:43.700Z,101884.28
2023-05-16T10:28:23.751Z,101899.41
2023-05-16T10:30:52.454Z,101888.09
2023-05-16T10:33:26.748Z,101884.56
2023-05-16T10:36:00.673Z,101889.78
2023-05-16T10:38:35.609Z,101903.06
2023-05-16T10:41:06.144Z,101902.22
2023-05-16T10:43:42.479Z,101883.72
2023-05-16T10:46:15.215Z,101874.69
2023-05-16T10:48:51.412Z,101884.81
2023-05-16T10:51:39.103Z,101902.16
2023-05-16T10:54:18.388Z,101872.34
2023-05-16T10:56:45.696Z,101873.97
2023-05-16T10:59:33.794Z,101889.66
2023-05-16T11:02:01.471Z,101886.84
2023-05-16T11:04:55.579Z,101878.75
2023-05-16T11:07:25.766Z,101880.72
2023-05-16T11:10:14.940Z,101860.28
2023-05-16T11:12:48.608Z,101883.47
2023-05-16T11:15:28.767Z,101869.63
2023-05-16T11:18:09.370Z,101879.22
2023-05-16T11:20:44.758Z,101883.03
2023-05-16T11:23:22.026Z,101889.78
2023-05-16T11:26:00.749Z,101871.34
2023-05-16T11:28:35.853Z,101869.84
2023-05-16T11:31:11.719Z,101869.78
2023-05-16T11:33:40.321Z,101883.56
2023-05-16T11:36:16.274Z,101878.84
2023-05-16T11:38:55.304Z,101875.22
2023-05-16T11:41:29.609Z,101888.38
2023-05-16T11:43:58.950Z,101891.31
2023-05-16T11:46:32.775Z,101885.16
2023-05-16T11:48:59.967Z,101874.13
2023-05-16T11:51:33.669Z,101876.19
2023-05-16T11:54:05.056Z,101893.38
2023-05-16T11:56:42.668Z,101894.38
2023-05-16T11:59:11.173Z,101891.09
2023-05-16T12:01:50.134Z,101879.81
2023-05-16T12:04:24.890Z,101891.50
2023-05-16T12:07:08.728Z,101882.16
2023-05-16T12:09:35.738Z,101894.94
2023-05-16T12:12:12.648Z,101891.88
2023-05-16T12:14:39.870Z,101910.50
2023-05-16T12:17:13.670Z,101891.34
2023-05-16T12:19:40.814Z,101888.97
2023-05-16T12:22:25.741Z,101901.28
2023-05-16T12:24:59.625Z,101909.56
2023-05-16T12:27:46.662Z,101884.47
2023-05-16T12:30:20.811Z,101905.56
2023-05-16T12:32:53.613Z,101908.78
2023-05-16T12:35:27.709Z,101899.25
2023-05-16T12:37:54.749Z,101882.97
2023-05-16T12:40:29.185Z,101898.97
2023-05-16T12:43:02.680Z,101908.88
2023-05-16T12:45:37.102Z,101897.34
2023-05-16T12:48:19.990Z,101916.31
2023-05-16T12:50:47.493Z,101924.00
2023-05-16T12:53:21.772Z,101919.03
2023-05-16T12:55:55.693Z,101915.06
2023-05-16T12:58:29.790Z,101906.91
2023-05-16T13:01:13.070Z,101939.63
2023-05-16T13:03:40.167Z,101934.75
2023-05-16T13:06:16.004Z,101944.38
2023-05-16T13:08:43.088Z,101942.31
2023-05-16T13:11:19.854Z,101946.59
2023-05-16T13:13:46.898Z,101931.97
2023-05-16T13:16:20.722Z,101935.41
2023-05-16T13:18:54.731Z,101937.00
2023-05-16T13:21:22.620Z,101945.16
2023-05-16T13:23:55.694Z,101928.50
2023-05-16T13:26:46.534Z,101936.69
2023-05-16T13:29:19.693Z,101937.19
2023-05-16T13:31:52.803Z,101958.25
2023-05-16T13:34:25.700Z,101938.53
2023-05-16T13:36:59.811Z,101945.97
2023-05-16T13:39:26.805Z,101926.53
2023-05-16T13:42:00.719Z,101944.81
2023-05-16T13:44:27.588Z,101945.56
2023-05-16T13:47:00.838Z,101936.75
2023-05-16T13:49:34.763Z,101946.00
2023-05-16T13:52:08.787Z,101946.50
2023-05-16T13:54:42.680Z,101938.22
2023-05-16T13:57:15.697Z,101935.25
2023-05-16T14:02:18.633Z,101939.84
2023-05-16T14:04:52.727Z,101948.81
2023-05-16T14:07:26.667Z,101938.91
2023-05-16T14:10:00.774Z,101939.78
2023-05-16T14:12:36.626Z,101949.59
2023-05-16T14:15:09.831Z,101938.13
2023-05-16T14:17:37.291Z,101945.59
2023-05-16T14:20:15.844Z,101939.03
2023-05-16T14:22:42.794Z,101957.03
2023-05-16T14:25:10.018Z,101951.50
2023-05-16T14:27:43.804Z,101967.91
2023-05-16T14:30:17.961Z,101934.69
2023-05-16T14:32:44.867Z,101956.88
2023-05-16T14:35:21.833Z,101947.59
2023-05-16T14:37:48.884Z,101953.63
2023-05-16T14:40:22.983Z,101941.91
2023-05-16T14:42:51.067Z,101960.81
2023-05-16T14:45:25.962Z,101970.91
2023-05-16T14:48:08.128Z,101951.50
2023-05-16T14:50:35.540Z,101952.31
2023-05-16T14:53:10.914Z,101974.25
2023-05-16T14:55:40.659Z,101976.50
2023-05-16T14:58:16.788Z,101979.84
2023-05-16T15:00:43.967Z,102002.31
2023-05-16T15:03:17.845Z,101980.44
2023-05-16T15:05:45.776Z,101963.84
2023-05-16T15:08:19.788Z,101979.81
2023-05-16T15:10:50.115Z,101969.00
2023-05-16T15:13:23.811Z,101968.38
2023-05-16T15:15:50.903Z,101972.09
2023-05-16T15:18:24.840Z,101984.19
2023-05-16T15:20:53.593Z,101995.75
2023-05-16T15:23:27.809Z,101989.25
2023-05-16T15:25:55.213Z,101977.56
2023-05-16T15:28:37.879Z,101966.22
2023-05-16T15:31:12.930Z,101973.06
2023-05-16T15:33:40.236Z,101981.28
2023-05-16T15:36:13.856Z,101976.16
2023-05-16T15:38:53.034Z,101969.34
2023-05-16T15:43:59.131Z,101981.78
2023-05-16T15:46:36.846Z,101993.66
2023-05-16T15:49:04.090Z,101997.59
2023-05-16T15:51:40.883Z,102006.09
2023-05-16T15:54:08.600Z,102033.38
2023-05-16T15:56:41.944Z,102006.19
2023-05-16T15:59:15.936Z,102026.72
2023-05-16T16:01:43.123Z,102039.16
2023-05-16T16:04:16.856Z,102027.16
2023-05-16T16:06:43.953Z,102020.28
2023-05-16T16:09:19.833Z,102011.94
2023-05-16T16:11:49.704Z,102011.16
2023-05-16T16:14:23.788Z,102038.38
2023-05-16T16:16:51.427Z,102010.75
2023-05-16T16:19:26.794Z,102035.34
2023-05-16T16:21:54.438Z,102031.25
2023-05-16T16:24:27.874Z,102019.69
2023-05-16T16:27:01.242Z,102034.34
2023-05-16T16:29:42.000Z,102007.72
2023-05-16T16:32:17.905Z,102025.47
2023-05-16T16:34:45.169Z,102022.66
2023-05-16T16:37:18.868Z,102051.16
2023-05-16T16:39:45.985Z,102044.19
2023-05-16T16:42:19.882Z,102026.97
2023-05-16T16:44:47.185Z,102009.63
2023-05-16T16:47:21.012Z,102013.94
2023-05-16T16:49:48.189Z,102043.31
2023-05-16T16:52:21.842Z,102057.34
2023-05-16T16:54:49.117Z,102022.34
2023-05-16T16:57:23.880Z,102046.31
2023-05-16T16:59:51.661Z,102027.47
2023-05-16T17:02:25.911Z,102036.78
2023-05-16T17:04:53.352Z,102043.75
2023-05-16T17:07:26.891Z,102030.59
2023-05-16T17:09:54.993Z,102066.31
2023-05-16T17:12:28.933Z,102035.38
2023-05-16T17:15:05.931Z,102070.81
2023-05-16T17:17:39.947Z,102074.84
2023-05-16T17:20:15.005Z,102059.16
2023-05-16T17:22:47.999Z,102060.63
2023-05-16T17:25:21.958Z,102042.81
2023-05-16T17:27:56.257Z,102064.28
2023-05-16T17:30:30.052Z,102052.59
2023-05-16T17:32:58.021Z,102086.28
2023-05-16T17:35:31.964Z,102077.34
2023-05-16T17:37:59.828Z,102076.69
2023-05-16T17:40:33.877Z,102100.22
2023-05-16T17:43:01.270Z,102093.13
2023-05-16T17:45:35.248Z,102091.88
2023-05-16T17:48:02.755Z,102108.63
2023-05-16T17:50:30.362Z,102079.91
2023-05-16T17:53:03.882Z,102093.13
2023-05-16T17:55:31.184Z,102088.94
2023-05-16T17:58:04.989Z,102092.16
2023-05-16T18:00:32.982Z,102079.50
2023-05-16T18:03:07.073Z,102085.81
2023-05-16T18:05:34.595Z,102089.97
2023-05-16T18:08:09.824Z,102109.16
2023-05-16T18:10:50.989Z,102091.03
2023-05-16T18:13:24.867Z,102077.28
2023-05-16T18:15:52.981Z,102099.81
2023-05-16T18:18:26.918Z,102084.16
2023-05-16T18:21:00.965Z,102066.06
2023-05-16T18:23:28.451Z,102092.84
2023-05-16T18:26:02.918Z,102079.19
2023-05-16T18:28:39.826Z,102099.13
2023-05-16T18:31:14.035Z,102101.41
2023-05-16T18:33:41.419Z,102118.75
2023-05-16T18:36:14.923Z,102094.16
2023-05-16T18:38:49.046Z,102106.94
2023-05-16T18:41:22.945Z,102097.84
2023-05-16T18:43:50.266Z,102079.84
2023-05-16T18:46:23.882Z,102093.84
2023-05-16T18:48:51.292Z,102091.38
2023-05-16T18:51:24.917Z,102114.63
2023-05-16T18:53:52.414Z,102118.44
2023-05-16T18:56:25.911Z,102117.75
2023-05-16T18:58:55.381Z,102090.00
2023-05-16T19:01:28.922Z,102082.25
2023-05-16T19:03:56.636Z,102082.56
2023-05-16T19:06:24.387Z,102087.97
2023-05-16T19:08:57.936Z,102111.59
2023-05-16T19:11:25.177Z,102132.56
2023-05-16T19:14:01.651Z,102104.38
2023-05-16T19:16:34.928Z,102119.38
2023-05-16T19:19:09.024Z,102110.09
2023-05-16T19:21:36.999Z,102121.00
2023-05-16T19:24:10.982Z,102140.31
2023-05-16T19:26:38.444Z,102140.50
2023-05-16T19:29:28.022Z,102109.00
2023-05-16T19:31:55.085Z,102127.56
2023-05-16T19:34:29.070Z,102128.53
2023-05-16T19:36:56.444Z,102119.50
2023-05-16T19:39:30.192Z,102117.25
2023-05-16T19:42:07.359Z,102133.25
2023-05-16T19:44:35.530Z,102121.31
2023-05-16T19:47:10.798Z,102118.13
2023-05-16T19:49:38.079Z,102131.44
2023-05-16T19:52:14.893Z,102124.75
2023-05-16T19:54:42.167Z,102123.38
2023-05-16T19:57:15.923Z,102131.16
2023-05-16T19:59:45.903Z,102136.81
2023-05-16T20:02:21.227Z,102121.78
2023-05-16T20:04:50.961Z,102162.66
2023-05-16T20:07:24.881Z,102134.41
2023-05-16T20:09:52.344Z,102139.09
2023-05-16T20:12:25.955Z,102143.66
2023-05-16T20:14:53.029Z,102157.47
2023-05-16T20:17:27.059Z,102144.75
2023-05-16T20:19:55.052Z,102153.50
2023-05-16T20:22:28.911Z,102161.75
2023-05-16T20:24:56.133Z,102143.78
2023-05-16T20:27:43.031Z,102131.19
2023-05-16T20:30:18.290Z,102134.31
2023-05-16T20:32:45.703Z,102156.56
2023-05-16T20:35:22.201Z,102172.78
2023-05-16T20:37:49.272Z,102152.97
2023-05-16T20:40:24.007Z,102152.00
2023-05-16T20:42:51.074Z,102140.94
2023-05-16T20:45:27.412Z,102176.16
2023-05-16T20:48:01.166Z,102166.97
2023-05-16T20:50:28.579Z,102140.16
2023-05-16T20:53:03.396Z,102171.09
2023-05-16T20:55:31.474Z,102150.47
2023-05-16T20:58:05.221Z,102157.31
2023-05-16T21:00:37.442Z,102160.84
2023-05-16T21:03:11.061Z,102168.25
2023-05-16T21:05:45.523Z,102163.97
2023-05-16T21:08:20.975Z,102175.31
2023-05-16T21:10:48.247Z,102170.13
2023-05-16T21:13:21.884Z,102167.47
2023-05-16T21:15:49.830Z,102183.91
2023-05-16T21:18:24.125Z,102193.34
2023-05-16T21:20:51.265Z,102205.47
2023-05-16T21:23:25.095Z,102186.09
2023-05-16T21:25:52.424Z,102210.16
2023-05-16T21:28:36.855Z,102169.19
2023-05-16T21:31:16.214Z,102179.88
2023-05-16T21:33:49.990Z,102175.91
2023-05-16T21:36:17.365Z,102189.13
2023-05-16T21:38:44.284Z,102173.53
2023-05-16T21:41:18.070Z,102198.47
2023-05-16T21:43:47.962Z,102205.56
2023-05-16T21:46:22.050Z,102174.88
2023-05-16T21:48:49.236Z,102214.66
2023-05-16T21:51:22.994Z,102180.41
2023-05-16T21:53:50.127Z,102220.22
2023-05-16T21:56:25.014Z,102231.78
2023-05-16T21:58:58.286Z,102189.56
2023-05-16T22:01:35.076Z,102210.19
2023-05-16T22:04:02.984Z,102208.59
2023-05-16T22:06:37.966Z,102193.09
2023-05-16T22:09:05.326Z,102204.53
2023-05-16T22:11:39.035Z,102204.75
2023-05-16T22:14:07.833Z,102229.28
2023-05-16T22:16:43.567Z,102201.09
2023-05-16T22:19:10.947Z,102221.25
2023-05-16T22:21:48.068Z,102231.97
2023-05-16T22:24:22.404Z,102204.53
2023-05-16T22:26:49.815Z,102218.78
2023-05-16T22:29:30.043Z,102192.25
2023-05-16T22:32:04.312Z,102217.56
2023-05-16T22:34:38.046Z,102221.88
2023-05-16T22:37:12.134Z,102210.84
2023-05-16T22:39:46.007Z,102209.06
2023-05-16T22:42:15.977Z,102188.75
2023-05-16T22:44:53.086Z,102220.09
2023-05-16T22:47:26.961Z,102230.44
2023-05-16T22:50:00.988Z,102193.44
2023-05-16T22:52:30.355Z,102193.56
2023-05-16T22:55:05.545Z,102218.69
2023-05-16T22:57:32.748Z,102218.13
2023-05-16T23:00:10.961Z,102219.03
2023-05-16T23:02:38.425Z,102190.59
2023-05-16T23:05:06.415Z,102227.81
2023-05-16T23:07:40.228Z,102193.59
2023-05-16T23:10:14.685Z,102217.84
2023-05-16T23:12:48.426Z,102208.38
2023-05-16T23:15:18.892Z,102207.44
2023-05-16T23:17:53.109Z,102225.94
2023-05-16T23:20:20.808Z,102191.63
2023-05-16T23:22:55.185Z,102203.00
2023-05-16T23:25:22.923Z,102222.25
2023-05-16T23:27:57.148Z,102189.44
2023-05-16T23:30:30.848Z,102228.47
2023-05-16T23:33:07.230Z,102208.81
2023-05-16T23:35:35.037Z,102202.78
2023-05-16T23:38:09.049Z,102215.88
2023-05-16T23:40:46.214Z,102214.28
2023-05-16T23:43:13.581Z,102201.50
2023-05-16T23:45:47.142Z,102218.53
2023-05-16T23:48:14.878Z,102230.69
2023-05-16T23:50:49.356Z,102197.28
2023-05-16T23:53:17.114Z,102204.25
2023-05-16T23:55:51.287Z,102207.09
2023-05-16T23:58:20.994Z,102220.25
